Time;durP1;ratioP1;P1;durP2;ratioP2;P2;SDS_P1;SDS_P2;PMS_P1;PMS_P2;Temp;Humidity;BMP_temperature;BMP_pressure;BME280_temperature;BME280_humidity;BME280_pressure;Samples;Min_cycle;Max_cycle;Signal;HPM_P1;HPM_P2
2022/02/28 00:01:34;;;;;;;17.23;10.60;;;;;;;-0.05;89.61;102739.00;4965378;28;20053;-84
2022/02/28 00:04:01;;;;;;;17.98;10.95;;;;;;;-0.07;89.41;102740.56;4965015;28;20137;-83
2022/02/28 00:06:28;;;;;;;18.52;10.93;;;;;;;-0.08;89.89;102744.84;4967634;28;20811;-85
2022/02/28 00:08:55;;;;;;;23.13;11.07;;;;;;;-0.08;89.41;102739.69;4965420;28;20050;-84
2022/02/28 00:11:23;;;;;;;25.27;11.77;;;;;;;-0.07;89.84;102740.56;4963408;28;20073;-83
2022/02/28 00:13:49;;;;;;;20.23;10.13;;;;;;;-0.10;89.62;102736.09;4955794;28;20713;-85
2022/02/28 00:16:16;;;;;;;18.67;10.88;;;;;;;-0.16;90.05;102743.41;4984773;28;20534;-84
2022/02/28 00:18:43;;;;;;;17.77;11.60;;;;;;;-0.19;90.10;102740.63;4964228;28;20042;-84
2022/02/28 00:21:09;;;;;;;17.35;11.60;;;;;;;-0.19;90.33;102735.47;4967790;28;20046;-84
2022/02/28 00:23:36;;;;;;;13.07;9.90;;;;;;;-0.19;90.99;102738.06;4966425;28;20081;-83
2022/02/28 00:26:04;;;;;;;17.60;9.80;;;;;;;-0.24;90.73;102732.56;4966025;28;20054;-84
2022/02/28 00:28:31;;;;;;;21.00;11.25;;;;;;;-0.26;90.95;102734.16;4968603;28;20631;-85
2022/02/28 00:30:58;;;;;;;22.08;11.10;;;;;;;-0.28;91.04;102728.00;4982144;28;20046;-84
2022/02/28 00:33:24;;;;;;;19.25;11.43;;;;;;;-0.33;90.90;102737.09;4986055;28;20540;-84
2022/02/28 00:35:51;;;;;;;19.98;11.48;;;;;;;-0.37;91.43;102732.53;4972435;28;20054;-84
2022/02/28 00:38:17;;;;;;;18.67;11.00;;;;;;;-0.39;92.08;102737.56;4968797;28;20061;-84
2022/02/28 00:40:44;;;;;;;19.23;11.93;;;;;;;-0.40;92.46;102737.47;4967567;28;20050;-84
2022/02/28 00:43:11;;;;;;;19.38;10.98;;;;;;;-0.44;92.48;102728.63;4989048;28;20140;-82
2022/02/28 00:45:38;;;;;;;18.55;11.73;;;;;;;-0.44;92.70;102732.88;4980085;28;20107;-83
2022/02/28 00:48:05;;;;;;;24.33;11.32;;;;;;;-0.44;92.64;102722.56;4982313;28;20057;-84
2022/02/28 00:50:34;;;;;;;19.92;11.27;;;;;;;-0.40;92.51;102729.75;4989821;28;20129;-84
2022/02/28 00:53:01;;;;;;;20.02;11.60;;;;;;;-0.43;92.56;102725.28;4972183;28;20042;-84
2022/02/28 00:55:28;;;;;;;24.05;11.48;;;;;;;-0.42;92.79;102723.59;4972975;28;20049;-83
2022/02/28 00:57:55;;;;;;;18.60;11.48;;;;;;;-0.42;92.71;102732.19;4959630;28;20051;-84
2022/02/28 01:00:23;;;;;;;20.60;11.10;;;;;;;-0.42;92.70;102723.59;4987257;28;20058;-84
2022/02/28 01:02:50;;;;;;;24.05;12.05;;;;;;;-0.44;93.19;102720.91;4965681;28;20105;-85
2022/02/28 01:05:18;;;;;;;24.73;11.10;;;;;;;-0.48;92.89;102708.63;4964952;28;20057;-83
2022/02/28 01:07:45;;;;;;;22.60;11.35;;;;;;;-0.48;92.52;102718.00;4968255;28;20054;-85
2022/02/28 01:10:15;;;;;;;19.95;10.73;;;;;;;-0.50;92.95;102712.75;4965409;28;20073;-84
2022/02/28 01:12:42;;;;;;;19.80;11.10;;;;;;;-0.52;93.09;102706.63;4961445;28;20061;-84
2022/02/28 01:15:12;;;;;;;18.73;11.02;;;;;;;-0.57;93.86;102706.31;4968970;28;20104;-85
2022/02/28 01:17:39;;;;;;;16.83;10.35;;;;;;;-0.58;93.74;102701.94;4974956;28;20076;-84
2022/02/28 01:20:07;;;;;;;18.92;10.10;;;;;;;-0.62;93.42;102691.34;4966458;28;20045;-84
2022/02/28 01:22:34;;;;;;;19.70;11.77;;;;;;;-0.60;93.79;102697.47;4981450;28;20101;-84
2022/02/28 01:25:01;;;;;;;20.15;11.63;;;;;;;-0.61;94.23;102690.53;4971473;28;20432;-84
2022/02/28 01:27:27;;;;;;;21.60;12.43;;;;;;;-0.63;94.35;102693.00;4965816;28;20046;-84
2022/02/28 01:29:54;;;;;;;18.67;11.15;;;;;;;-0.65;94.24;102693.69;4979616;28;20046;-84
2022/02/28 01:32:20;;;;;;;17.58;11.05;;;;;;;-0.64;94.69;102700.63;4962920;28;20054;-84
2022/02/28 01:34:47;;;;;;;19.02;11.07;;;;;;;-0.65;94.31;102696.25;4979407;28;20333;-84
2022/02/28 01:37:14;;;;;;;21.83;12.38;;;;;;;-0.67;94.76;102702.19;4981692;28;20042;-84
2022/02/28 01:39:44;;;;;;;23.27;12.40;;;;;;;-0.70;94.49;102698.53;4963396;28;20049;-84
2022/02/28 01:42:12;;;;;;;19.83;11.73;;;;;;;-0.76;94.46;102691.25;4977610;28;20045;-84
2022/02/28 01:44:38;;;;;;;20.70;11.82;;;;;;;-0.78;95.45;102695.41;4962976;28;20066;-83
2022/02/28 01:47:05;;;;;;;21.83;11.02;;;;;;;-0.81;94.41;102690.03;4967720;28;20053;-84
2022/02/28 01:49:31;;;;;;;25.33;11.77;;;;;;;-0.79;95.37;102691.06;4973770;28;20050;-84
2022/02/28 01:52:00;;;;;;;17.75;10.25;;;;;;;-0.84;94.88;102687.25;4968435;28;20049;-83
2022/02/28 01:54:26;;;;;;;20.88;11.13;;;;;;;-0.82;95.75;102688.28;4975564;28;20070;-83
2022/02/28 01:56:53;;;;;;;20.08;10.95;;;;;;;-0.81;95.55;102690.03;4969977;28;20056;-84
2022/02/28 01:59:20;;;;;;;20.55;10.70;;;;;;;-0.82;95.42;102684.78;4962191;28;20936;-84
2022/02/28 02:01:59;;;;;;;19.77;11.57;;;;;;;-0.82;95.39;102682.22;4960510;28;20051;-84
2022/02/28 02:04:26;;;;;;;19.90;11.95;;;;;;;-0.83;95.80;102676.19;4965916;28;20057;-84
2022/02/28 02:06:53;;;;;;;17.40;11.32;;;;;;;-0.81;95.36;102682.31;4963987;28;20122;-84
2022/02/28 02:09:23;;;;;;;20.23;11.90;;;;;;;-0.83;95.33;102681.34;4971045;28;20050;-84
2022/02/28 02:11:49;;;;;;;21.48;11.65;;;;;;;-0.85;95.20;102678.66;4969188;28;20070;-84
2022/02/28 02:14:16;;;;;;;20.60;11.02;;;;;;;-0.88;95.41;102674.97;4962197;28;20093;-83
2022/02/28 02:16:43;;;;;;;18.17;10.93;;;;;;;-0.95;95.26;102673.66;4999534;28;20045;-84
2022/02/28 02:19:11;;;;;;;15.02;10.25;;;;;;;-1.00;96.30;102673.31;4961315;28;20074;-84
2022/02/28 02:21:38;;;;;;;19.20;11.38;;;;;;;-1.01;96.44;102671.53;4962417;28;20084;-84
2022/02/28 02:24:05;;;;;;;20.23;11.52;;;;;;;-1.03;96.54;102669.63;4962736;28;20073;-84
2022/02/28 02:26:31;;;;;;;18.50;10.40;;;;;;;-1.04;96.43;102671.31;4982430;28;20046;-84
2022/02/28 02:28:58;;;;;;;20.63;11.40;;;;;;;-1.06;96.80;102674.56;4973744;28;20101;-84
2022/02/28 02:31:24;;;;;;;17.20;12.48;;;;;;;-1.09;96.71;102672.66;4979789;28;20116;-84
2022/02/28 02:33:51;;;;;;;16.63;10.85;;;;;;;-1.12;96.39;102681.84;4964438;28;20057;-84
2022/02/28 02:36:18;;;;;;;16.13;10.57;;;;;;;-1.15;97.62;102686.75;4962861;28;20492;-84
2022/02/28 02:38:45;;;;;;;19.92;10.68;;;;;;;-1.18;96.32;102680.59;4962332;28;20041;-84
2022/02/28 02:41:12;;;;;;;21.88;11.43;;;;;;;-1.21;97.51;102679.53;4965047;28;20556;-84
2022/02/28 02:43:38;;;;;;;19.35;11.68;;;;;;;-1.24;97.62;102681.84;4957145;28;20068;-84
2022/02/28 02:46:05;;;;;;;17.05;11.43;;;;;;;-1.24;97.77;102684.41;4980778;28;20056;-84
2022/02/28 02:48:32;;;;;;;17.88;10.43;;;;;;;-1.26;98.15;102684.31;4964659;28;20216;-84
2022/02/28 02:50:59;;;;;;;18.67;11.15;;;;;;;-1.24;98.41;102681.84;4963021;28;20065;-84
2022/02/28 02:53:25;;;;;;;28.67;12.68;;;;;;;-1.29;97.96;102678.97;4979863;28;20044;-83
2022/02/28 02:55:52;;;;;;;19.85;11.45;;;;;;;-1.33;97.23;102695.81;4980434;28;20050;-84
2022/02/28 02:58:19;;;;;;;16.10;9.40;;;;;;;-1.38;97.77;102681.75;4982733;28;20528;-84
2022/02/28 03:00:50;;;;;;;20.35;13.07;;;;;;;-1.40;99.00;102674.72;4966798;28;20046;-84
2022/02/28 03:03:22;;;;;;;21.27;12.65;;;;;;;-1.42;99.02;102681.41;4975771;28;20073;-84
2022/02/28 03:05:50;;;;;;;16.63;10.15;;;;;;;-1.45;98.91;102674.38;4969158;28;20054;-84
2022/02/28 03:08:17;;;;;;;20.70;10.85;;;;;;;-1.51;99.20;102671.38;4965437;28;20045;-84
2022/02/28 03:10:44;;;;;;;18.00;11.05;;;;;;;-1.55;99.37;102671.91;4963966;28;20136;-84
2022/02/28 03:13:10;;;;;;;24.90;14.15;;;;;;;-1.55;100.00;102674.47;4980842;28;20133;-83
2022/02/28 03:15:37;;;;;;;23.15;12.10;;;;;;;-1.55;100.00;102671.91;4980427;28;20052;-83
2022/02/28 03:18:06;;;;;;;24.63;12.18;;;;;;;-1.59;99.95;102668.25;4974232;28;20054;-84
2022/02/28 03:20:32;;;;;;;20.40;13.20;;;;;;;-1.60;100.00;102674.16;4981800;28;20408;-84
2022/02/28 03:22:59;;;;;;;19.83;11.50;;;;;;;-1.64;99.40;102674.72;4964131;28;20046;-84
2022/02/28 03:25:26;;;;;;;17.95;11.15;;;;;;;-1.67;100.00;102677.03;4960254;28;20074;-84
2022/02/28 03:27:52;;;;;;;19.73;12.38;;;;;;;-1.69;100.00;102676.06;4960838;28;20056;-84
2022/02/28 03:30:19;;;;;;;18.98;12.02;;;;;;;-1.72;100.00;102673.25;4978408;28;20099;-84
2022/02/28 03:32:45;;;;;;;22.92;12.27;;;;;;;-1.75;100.00;102675.59;4980377;28;20046;-84
2022/02/28 03:35:12;;;;;;;22.40;12.23;;;;;;;-1.75;100.00;102688.44;4966303;28;20046;-83
2022/02/28 03:37:38;;;;;;;22.77;12.68;;;;;;;-1.74;100.00;102685.97;4973168;28;20049;-84
2022/02/28 03:40:06;;;;;;;23.00;11.68;;;;;;;-1.75;100.00;102689.31;4979304;28;20056;-84
2022/02/28 03:42:33;;;;;;;17.17;11.30;;;;;;;-1.75;100.00;102691.00;4960740;28;20093;-84
2022/02/28 03:44:59;;;;;;;23.15;12.50;;;;;;;-1.76;100.00;102695.25;4962497;28;20058;-84
2022/02/28 03:47:26;;;;;;;19.98;12.02;;;;;;;-1.76;100.00;102687.56;4977408;28;20090;-84
2022/02/28 03:49:52;;;;;;;18.38;10.80;;;;;;;-1.73;100.00;102689.44;4962592;28;20050;-85
2022/02/28 03:52:19;;;;;;;21.55;11.70;;;;;;;-1.72;100.00;102697.25;4967469;28;20042;-84
2022/02/28 03:54:45;;;;;;;22.50;12.18;;;;;;;-1.71;100.00;102696.50;4964442;28;20419;-84
2022/02/28 03:57:12;;;;;;;25.15;13.10;;;;;;;-1.69;100.00;102704.31;4964051;28;20046;-84
2022/02/28 03:59:39;;;;;;;29.95;12.98;;;;;;;-1.70;100.00;102705.06;4961283;28;20053;-84
2022/02/28 04:02:05;;;;;;;21.27;11.70;;;;;;;-1.68;100.00;102696.69;4961586;28;20057;-84
2022/02/28 04:04:32;;;;;;;26.23;12.80;;;;;;;-1.69;100.00;102696.59;4967940;28;20038;-84
2022/02/28 04:06:59;;;;;;;22.02;12.20;;;;;;;-1.72;100.00;102693.78;4961982;28;20135;-84
2022/02/28 04:09:25;;;;;;;20.30;12.20;;;;;;;-1.72;100.00;102693.78;4964060;28;20099;-84
2022/02/28 04:11:55;;;;;;;24.08;11.43;;;;;;;-1.74;100.00;102693.69;4975635;28;20133;-84
2022/02/28 04:14:21;;;;;;;17.67;12.25;;;;;;;-1.75;100.00;102694.44;4967238;28;20049;-84
2022/02/28 04:16:48;;;;;;;21.35;11.93;;;;;;;-1.74;100.00;102693.69;4983056;28;20046;-84
2022/02/28 04:19:15;;;;;;;30.35;14.68;;;;;;;-1.75;100.00;102686.75;4957335;28;20050;-84
2022/02/28 04:21:41;;;;;;;17.35;11.73;;;;;;;-1.73;100.00;102690.34;4975879;28;20042;-84
2022/02/28 04:24:08;;;;;;;22.48;13.60;;;;;;;-1.71;100.00;102688.78;4966255;28;20048;-84
2022/02/28 04:26:36;;;;;;;21.80;12.25;;;;;;;-1.72;100.00;102688.66;4960686;28;20052;-84
2022/02/28 04:29:04;;;;;;;21.48;12.55;;;;;;;-1.74;100.00;102685.09;4961589;28;20050;-84
2022/02/28 04:31:31;;;;;;;23.10;13.10;;;;;;;-1.75;100.00;102683.28;4980971;28;20045;-85
2022/02/28 04:33:57;;;;;;;20.40;12.48;;;;;;;-1.78;100.00;102678.81;4963928;28;20046;-84
2022/02/28 04:36:24;;;;;;;24.65;12.95;;;;;;;-1.79;100.00;102686.44;4961627;28;21143;-84
2022/02/28 04:38:50;;;;;;;24.48;13.88;;;;;;;-1.78;100.00;102686.53;4975785;28;20147;-83
2022/02/28 04:41:17;;;;;;;20.10;12.70;;;;;;;-1.77;100.00;102684.84;4964034;28;20124;-84
2022/02/28 04:43:43;;;;;;;24.15;13.02;;;;;;;-1.79;100.00;102682.16;4965378;28;20050;-84
2022/02/28 04:46:10;;;;;;;23.52;14.05;;;;;;;-1.79;100.00;102683.84;4965357;28;20041;-84
2022/02/28 04:48:39;;;;;;;26.02;13.40;;;;;;;-1.79;100.00;102682.16;4956436;28;21185;-84
2022/02/28 04:51:06;;;;;;;22.52;12.45;;;;;;;-1.79;100.00;102689.00;4963438;28;20208;-84
2022/02/28 04:53:33;;;;;;;18.50;11.73;;;;;;;-1.82;100.00;102684.53;4973609;28;20046;-84
2022/02/28 04:55:59;;;;;;;23.45;12.82;;;;;;;-1.81;100.00;102681.19;4966206;28;20607;-84
2022/02/28 04:58:26;;;;;;;26.20;13.02;;;;;;;-1.80;100.00;102684.63;4964553;28;20817;-84
2022/02/28 05:00:53;;;;;;;27.50;14.07;;;;;;;-1.76;100.00;102689.22;4962604;28;20409;-84
2022/02/28 05:03:19;;;;;;;25.20;12.68;;;;;;;-1.75;100.00;102683.28;4978279;28;20053;-84
2022/02/28 05:05:46;;;;;;;19.27;12.43;;;;;;;-1.78;100.00;102683.09;4976308;28;20376;-84
2022/02/28 05:08:13;;;;;;;22.15;12.88;;;;;;;-1.78;100.00;102680.50;4958237;28;20049;-84
2022/02/28 05:10:39;;;;;;;25.20;14.70;;;;;;;-1.80;100.00;102682.06;4968229;28;20051;-84
2022/02/28 05:13:06;;;;;;;21.33;14.30;;;;;;;-1.78;100.00;102683.97;4967969;28;20350;-84
2022/02/28 05:15:32;;;;;;;29.83;14.15;;;;;;;-1.76;100.00;102687.56;4974996;28;20057;-84
2022/02/28 05:17:59;;;;;;;23.92;13.82;;;;;;;-1.76;100.00;102684.06;4964468;28;20057;-85
2022/02/28 05:20:28;;;;;;;22.33;12.75;;;;;;;-1.77;100.00;102685.75;4975102;28;20708;-85
2022/02/28 05:22:55;;;;;;;25.95;14.07;;;;;;;-1.77;100.00;102690.88;4977498;28;20403;-82
2022/02/28 05:25:21;;;;;;;22.60;12.95;;;;;;;-1.81;100.00;102678.63;4969211;28;20139;-83
2022/02/28 05:27:49;;;;;;;23.17;13.05;;;;;;;-1.81;100.00;102688.88;4976897;28;20073;-84
2022/02/28 05:30:16;;;;;;;22.85;13.65;;;;;;;-1.84;100.00;102686.97;4962038;28;20136;-82
2022/02/28 05:32:44;;;;;;;24.67;13.82;;;;;;;-1.84;100.00;102688.63;4971668;28;20052;-82
2022/02/28 05:35:13;;;;;;;25.65;13.95;;;;;;;-1.87;100.00;102685.84;4986168;28;20446;-83
2022/02/28 05:37:41;;;;;;;26.15;14.43;;;;;;;-1.91;100.00;102684.72;4968965;28;20046;-82
2022/02/28 05:40:17;;;;;;;22.90;13.30;;;;;;;-1.94;100.00;102694.78;4983284;28;20046;-82
2022/02/28 05:42:44;;;;;;;25.52;13.27;;;;;;;-1.95;100.00;102690.41;4966826;28;20135;-84
2022/02/28 05:45:14;;;;;;;25.05;14.02;;;;;;;-1.96;100.00;102685.16;4968289;28;20109;-82
2022/02/28 05:47:42;;;;;;;26.35;14.40;;;;;;;-1.95;100.00;102686.97;4972493;28;20328;-82
2022/02/28 05:50:12;;;;;;;23.85;15.82;;;;;;;-1.95;100.00;102692.09;4969596;28;20068;-81
2022/02/28 05:52:38;;;;;;;26.13;13.68;;;;;;;-1.96;100.00;102698.88;4971759;28;20424;-82
2022/02/28 05:55:10;;;;;;;29.25;14.93;;;;;;;-2.00;100.00;102700.31;4976718;28;20043;-82
2022/02/28 05:57:39;;;;;;;25.45;13.20;;;;;;;-2.04;100.00;102700.88;4969064;28;20065;-82
2022/02/28 06:00:12;;;;;;;24.75;13.73;;;;;;;-2.08;100.00;102697.97;4984627;28;20064;-84
2022/02/28 06:02:39;;;;;;;26.17;13.52;;;;;;;-2.10;100.00;102700.44;4967425;28;20082;-83
2022/02/28 06:05:06;;;;;;;27.27;14.73;;;;;;;-2.10;100.00;102699.50;4968473;28;20097;-84
2022/02/28 06:07:34;;;;;;;26.83;14.00;;;;;;;-2.08;100.00;102703.09;4979393;28;20406;-86
2022/02/28 06:10:01;;;;;;;25.55;13.77;;;;;;;-2.11;100.00;102697.72;4984327;28;20038;-83
2022/02/28 06:12:33;;;;;;;35.45;19.45;;;;;;;-2.11;100.00;102708.91;4967032;28;20531;-82
2022/02/28 06:15:01;;;;;;;36.20;17.00;;;;;;;-2.11;100.00;102708.91;4983686;28;20041;-84
2022/02/28 06:17:27;;;;;;;37.88;20.48;;;;;;;-2.09;100.00;102709.88;4965257;28;20071;-81
2022/02/28 06:19:54;;;;;;;31.27;17.90;;;;;;;-2.08;100.00;102714.25;4979431;28;20050;-83
2022/02/28 06:22:21;;;;;;;28.05;16.63;;;;;;;-2.06;100.00;102711.78;4984601;28;20046;-82
2022/02/28 06:24:48;;;;;;;30.00;16.23;;;;;;;-2.04;100.00;102708.56;4982005;28;20423;-83
2022/02/28 06:27:15;;;;;;;31.80;16.92;;;;;;;-1.97;100.00;102714.16;4981374;28;20050;-82
2022/02/28 06:29:44;;;;;;;26.92;17.10;;;;;;;-1.98;100.00;102713.28;4968202;28;20052;-83
2022/02/28 06:32:11;;;;;;;30.45;16.40;;;;;;;-1.96;100.00;102719.41;4982022;28;20052;-82
2022/02/28 06:34:38;;;;;;;28.38;16.20;;;;;;;-1.97;100.00;102717.63;4987264;28;20972;-82
2022/02/28 06:37:04;;;;;;;23.85;15.05;;;;;;;-1.96;100.00;102714.28;4962019;28;20058;-85
2022/02/28 06:39:34;;;;;;;29.20;15.40;;;;;;;-1.97;100.00;102727.88;4963318;28;20049;-85
2022/02/28 06:42:00;;;;;;;27.25;16.30;;;;;;;-1.96;100.00;102727.13;4964599;28;20054;-85
2022/02/28 06:44:28;;;;;;;29.15;15.52;;;;;;;-1.93;100.00;102716.19;4967486;28;20486;-86
2022/02/28 06:46:54;;;;;;;29.15;14.63;;;;;;;-1.89;100.00;102728.47;4961073;28;20053;-85
2022/02/28 06:49:21;;;;;;;28.90;15.82;;;;;;;-1.87;100.00;102726.94;4980718;28;20046;-85
2022/02/28 06:51:48;;;;;;;27.60;14.80;;;;;;;-1.82;100.00;102728.16;4964646;28;20074;-85
2022/02/28 06:54:18;;;;;;;26.90;15.10;;;;;;;-1.78;100.00;102735.31;4979148;28;20045;-86
2022/02/28 06:56:44;;;;;;;29.60;17.13;;;;;;;-1.74;100.00;102731.31;4967007;28;20096;-85
2022/02/28 06:59:11;;;;;;;29.27;15.25;;;;;;;-1.71;100.00;102724.75;4967786;28;20073;-85
2022/02/28 07:01:39;;;;;;;28.08;15.18;;;;;;;-1.67;100.00;102731.88;4970841;28;20054;-85
2022/02/28 07:04:07;;;;;;;27.92;15.27;;;;;;;-1.64;100.00;102720.94;4958930;28;20111;-85
2022/02/28 07:06:35;;;;;;;26.67;15.65;;;;;;;-1.59;100.00;102724.75;4960612;28;20045;-85
2022/02/28 07:09:05;;;;;;;28.17;15.10;;;;;;;-1.56;100.00;102729.22;4963666;28;20057;-84
2022/02/28 07:11:32;;;;;;;26.00;15.23;;;;;;;-1.55;100.00;102720.72;4964492;28;20049;-86
2022/02/28 07:13:59;;;;;;;28.75;15.10;;;;;;;-1.51;100.00;102728.78;4979948;28;20065;-85
2022/02/28 07:16:25;;;;;;;27.30;17.05;;;;;;;-1.42;100.00;102722.50;4967909;28;20046;-84
2022/02/28 07:18:52;;;;;;;29.33;15.38;;;;;;;-1.13;100.00;102721.16;4978256;28;20076;-85
2022/02/28 07:21:19;;;;;;;27.10;15.63;;;;;;;-0.68;100.00;102714.94;4974871;28;20136;-85
2022/02/28 07:23:46;;;;;;;26.70;14.15;;;;;;;-0.18;98.48;102724.41;4977469;28;20045;-85
2022/02/28 07:26:13;;;;;;;22.70;15.07;;;;;;;0.30;97.44;102725.00;4983785;28;20112;-85
2022/02/28 07:28:40;;;;;;;25.52;13.68;;;;;;;0.71;91.25;102728.53;4963727;28;20061;-85
2022/02/28 07:31:06;;;;;;;22.92;12.82;;;;;;;1.06;91.03;102725.63;4984943;28;20471;-85
2022/02/28 07:33:33;;;;;;;25.38;14.27;;;;;;;1.38;88.57;102733.63;4964153;28;20045;-85
2022/02/28 07:36:00;;;;;;;22.02;14.43;;;;;;;1.78;86.92;102739.53;4965982;28;20045;-85
2022/02/28 07:38:26;;;;;;;29.23;14.57;;;;;;;2.12;83.91;102736.38;4959595;28;20064;-85
2022/02/28 07:40:53;;;;;;;19.42;12.90;;;;;;;2.09;80.23;102743.97;4971171;28;20051;-85
2022/02/28 07:43:19;;;;;;;23.30;13.45;;;;;;;2.07;81.25;102740.38;4978349;28;20064;-85
2022/02/28 07:45:46;;;;;;;21.58;13.45;;;;;;;2.24;78.61;102745.66;4967661;28;20121;-85
2022/02/28 07:48:13;;;;;;;23.58;12.18;;;;;;;2.09;80.74;102740.50;4958949;28;20127;-85
2022/02/28 07:50:39;;;;;;;20.58;13.65;;;;;;;1.88;79.07;102746.16;4966461;28;20049;-85
2022/02/28 07:53:06;;;;;;;23.17;14.05;;;;;;;1.93;79.14;102749.00;4962877;28;20046;-86
2022/02/28 07:55:33;;;;;;;21.10;12.57;;;;;;;1.80;79.31;102756.03;4970348;28;20045;-86
2022/02/28 07:57:59;;;;;;;25.08;14.10;;;;;;;1.41;80.53;102744.13;4965999;28;20149;-85
2022/02/28 08:00:26;;;;;;;22.33;12.57;;;;;;;1.15;81.92;102757.16;4973326;28;20081;-85
2022/02/28 08:02:53;;;;;;;24.95;14.60;;;;;;;0.85;83.59;102760.34;4962056;28;20072;-85
2022/02/28 08:05:20;;;;;;;24.85;13.75;;;;;;;0.59;84.73;102757.00;4974431;28;20093;-85
2022/02/28 08:07:46;;;;;;;23.02;12.82;;;;;;;0.43;86.49;102752.47;4978503;28;20049;-85
2022/02/28 08:10:13;;;;;;;21.50;13.18;;;;;;;0.33;87.08;102759.59;4964965;28;20261;-85
2022/02/28 08:12:40;;;;;;;24.98;15.02;;;;;;;0.26;88.36;102759.09;4965559;28;20054;-85
2022/02/28 08:15:07;;;;;;;21.27;14.07;;;;;;;0.21;88.83;102758.78;4976304;28;20052;-85
2022/02/28 08:17:34;;;;;;;28.38;16.98;;;;;;;0.21;88.96;102760.47;4965683;28;20053;-85
2022/02/28 08:20:01;;;;;;;27.10;14.60;;;;;;;0.20;89.80;102771.56;4979453;28;20095;-85
2022/02/28 08:22:27;;;;;;;27.63;14.00;;;;;;;0.20;88.93;102769.88;4973121;28;20072;-85
2022/02/28 08:24:55;;;;;;;27.17;15.07;;;;;;;0.18;89.13;102768.00;4966269;28;20053;-85
2022/02/28 08:27:22;;;;;;;27.42;15.02;;;;;;;0.18;89.57;102762.84;4974866;28;20054;-85
2022/02/28 08:29:49;;;;;;;32.85;15.73;;;;;;;0.16;89.79;102766.19;4971889;28;20104;-85
2022/02/28 08:32:16;;;;;;;35.65;19.38;;;;;;;0.18;90.14;102771.44;4963267;28;20731;-85
2022/02/28 08:34:42;;;;;;;37.33;18.23;;;;;;;0.22;90.36;102770.88;4967792;28;20046;-84
2022/02/28 08:37:09;;;;;;;28.63;17.20;;;;;;;0.22;90.14;102760.59;4946497;28;20078;-86
2022/02/28 08:39:36;;;;;;;34.80;19.25;;;;;;;0.23;90.60;102764.94;4961175;28;20061;-85
2022/02/28 08:42:03;;;;;;;37.65;19.73;;;;;;;0.21;90.63;102763.03;4960542;28;20055;-85
2022/02/28 08:44:29;;;;;;;39.92;21.55;;;;;;;0.24;90.66;102763.25;4959049;28;20046;-85
2022/02/28 08:46:56;;;;;;;45.40;22.05;;;;;;;0.30;90.16;102755.91;4962134;28;20062;-85
2022/02/28 08:49:23;;;;;;;46.15;21.98;;;;;;;0.31;89.75;102763.78;4961878;28;20124;-86
2022/02/28 08:51:51;;;;;;;44.20;23.73;;;;;;;0.32;88.96;102762.09;4964093;28;20054;-85
2022/02/28 08:54:17;;;;;;;45.67;24.65;;;;;;;0.32;88.16;102770.69;4974620;28;20050;-85
2022/02/28 08:56:44;;;;;;;47.90;24.92;;;;;;;0.23;88.56;102767.50;4968162;28;20057;-85
2022/02/28 08:59:10;;;;;;;63.42;26.98;;;;;;;0.15;89.35;102769.56;4969115;28;20125;-85
2022/02/28 09:01:37;;;;;;;54.40;27.73;;;;;;;0.14;89.62;102770.38;4980814;28;20160;-85
2022/02/28 09:04:05;;;;;;;51.90;25.65;;;;;;;0.16;89.36;102775.63;4965031;28;20529;-85
2022/02/28 09:06:31;;;;;;;58.70;26.45;;;;;;;0.15;88.89;102774.72;4968684;28;20053;-85
2022/02/28 09:08:58;;;;;;;54.20;25.90;;;;;;;0.16;89.43;102783.34;4970139;28;20064;-85
2022/02/28 09:11:25;;;;;;;57.55;25.73;;;;;;;0.21;88.94;102788.78;4961775;28;20130;-85
2022/02/28 09:13:52;;;;;;;56.22;25.73;;;;;;;0.26;88.49;102795.16;4968211;28;20169;-85
2022/02/28 09:16:19;;;;;;;53.70;25.10;;;;;;;0.30;88.45;102784.25;4969983;28;20053;-84
2022/02/28 09:18:46;;;;;;;53.75;25.13;;;;;;;0.36;88.57;102787.25;4975635;28;20051;-85
2022/02/28 09:21:13;;;;;;;47.83;25.23;;;;;;;0.47;88.02;102775.09;4979288;28;20128;-85
2022/02/28 09:23:39;;;;;;;47.80;23.75;;;;;;;0.60;87.72;102777.69;4967195;28;20053;-85
2022/02/28 09:26:06;;;;;;;55.78;26.92;;;;;;;0.74;87.48;102770.84;4977517;28;20049;-85
2022/02/28 09:28:33;;;;;;;55.13;25.40;;;;;;;0.91;85.89;102766.81;4980479;28;20045;-85
2022/02/28 09:31:00;;;;;;;53.17;27.80;;;;;;;1.02;84.78;102769.19;4969193;28;20049;-85
2022/02/28 09:33:26;;;;;;;58.72;28.55;;;;;;;1.04;84.69;102763.31;4976415;28;20762;-85
2022/02/28 09:35:54;;;;;;;60.20;27.42;;;;;;;1.10;84.62;102760.25;4980752;28;20106;-85
2022/02/28 09:38:22;;;;;;;54.03;26.65;;;;;;;1.17;84.25;102762.41;4978435;28;20471;-85
2022/02/28 09:40:51;;;;;;;62.45;28.35;;;;;;;1.23;84.55;102765.41;4963092;28;20052;-85
2022/02/28 09:43:19;;;;;;;54.50;25.98;;;;;;;1.31;84.15;102766.75;4970366;28;20887;-85
2022/02/28 09:45:46;;;;;;;51.50;25.48;;;;;;;1.36;83.36;102769.66;4998214;28;20066;-84
2022/02/28 09:48:17;;;;;;;47.33;26.63;;;;;;;1.42;83.05;102774.28;4966434;28;20072;-85
2022/02/28 09:50:43;;;;;;;49.97;24.95;;;;;;;1.50;82.18;102770.53;4977965;28;20158;-85
2022/02/28 09:53:10;;;;;;;48.78;24.67;;;;;;;1.57;81.89;102774.38;4966176;28;20057;-85
2022/02/28 09:55:39;;;;;;;47.22;23.73;;;;;;;1.64;80.62;102779.09;4978123;28;20049;-85
2022/02/28 09:58:07;;;;;;;45.35;22.88;;;;;;;1.71;79.69;102782.94;4977256;28;20034;-85
2022/02/28 10:00:35;;;;;;;53.15;25.52;;;;;;;1.83;80.20;102777.69;4978244;28;20042;-86
2022/02/28 10:03:03;;;;;;;50.53;24.05;;;;;;;1.94;79.63;102780.13;4962797;28;20057;-85
2022/02/28 10:05:30;;;;;;;43.50;22.25;;;;;;;2.07;78.56;102780.84;4967655;28;20130;-85
2022/02/28 10:08:06;;;;;;;39.20;21.35;;;;;;;2.19;78.59;102780.69;4964003;28;20168;-84
2022/02/28 10:10:35;;;;;;;42.17;22.35;;;;;;;2.30;77.21;102783.09;4976224;28;20100;-85
2022/02/28 10:13:02;;;;;;;40.88;21.60;;;;;;;2.40;77.48;102781.06;4983000;28;20050;-85
2022/02/28 10:15:29;;;;;;;47.97;25.55;;;;;;;2.45;77.91;102780.53;4968405;28;20465;-84
2022/02/28 10:18:05;;;;;;;49.53;24.58;;;;;;;2.54;76.59;102787.94;4984679;28;20129;-86
2022/02/28 10:20:38;;;;;;;54.05;26.83;;;;;;;2.63;77.43;102795.34;4964066;28;20058;-85
2022/02/28 10:23:13;;;;;;;55.00;28.30;;;;;;;2.72;76.98;102801.03;4969261;28;20062;-85
2022/02/28 10:25:46;;;;;;;54.65;26.95;;;;;;;2.73;76.11;102789.00;4981730;28;20125;-86
2022/02/28 10:28:25;;;;;;;48.58;24.63;;;;;;;2.73;76.35;102786.44;4966165;28;20100;-85
2022/02/28 10:31:05;;;;;;;55.95;28.90;;;;;;;2.71;77.11;102781.19;4983413;28;20052;-85
2022/02/28 10:33:37;;;;;;;57.08;30.33;;;;;;;2.74;77.84;102777.88;4969770;28;20141;-85
2022/02/28 10:36:21;;;;;;;54.95;29.42;;;;;;;2.76;77.75;102790.06;4978808;28;20053;-86
2022/02/28 10:38:54;;;;;;;66.55;33.45;;;;;;;2.72;77.99;102785.53;4966745;28;20129;-86
2022/02/28 10:41:27;;;;;;;62.50;32.90;;;;;;;2.76;78.48;102784.00;4963561;28;20049;-85
2022/02/28 10:43:58;;;;;;;53.83;30.00;;;;;;;2.75;77.89;102780.53;4982099;28;20104;-86
2022/02/28 10:46:42;;;;;;;63.20;31.25;;;;;;;2.68;78.32;102790.44;4984551;28;20100;-86
2022/02/28 10:49:21;;;;;;;66.05;31.30;;;;;;;2.60;78.45;102783.13;4963588;28;20056;-86
2022/02/28 10:51:59;;;;;;;54.88;29.25;;;;;;;2.58;78.43;102795.09;4981329;28;20058;-85
2022/02/28 10:54:33;;;;;;;63.78;30.58;;;;;;;2.52;78.13;102789.56;4983789;28;20645;-86
2022/02/28 10:57:22;;;;;;;57.83;30.15;;;;;;;2.37;78.17;102781.75;4970214;28;20064;-85
2022/02/28 10:59:57;;;;;;;57.97;30.80;;;;;;;2.28;79.51;102791.56;4987861;28;20049;-85
2022/02/28 11:02:28;;;;;;;54.13;29.30;;;;;;;2.27;79.15;102787.22;4981836;28;20050;-85
2022/02/28 11:05:18;;;;;;;54.17;29.83;;;;;;;2.16;79.16;102789.13;4970613;28;20050;-85
2022/02/28 11:07:52;;;;;;;60.42;29.73;;;;;;;2.17;79.92;102790.06;4965691;28;20057;-86
2022/02/28 11:10:21;;;;;;;57.25;27.00;;;;;;;2.28;79.71;102786.41;4980020;28;20045;-85
2022/02/28 11:12:49;;;;;;;47.00;25.65;;;;;;;2.35;79.97;102782.47;4982782;28;20054;-85